Rosenberg, Texas
Current Conditions -  °F | °C
As of 10:53 PM on Friday 28 Nov 2014 (Local Time) from KSGR Reporting Station
Clear Clear  
Wind Chill: 57°   Ceiling: Unl
Heat Index: 57°   Visibility: 10mi
Dew Point: 55°   Wind: 6mph
Humidity: 93%   Direction: 180°S
Pressure: 30.14"   Gusts: NA
Location:  29.55°N, 95.8°W
Report Text: KSGR 290453Z AUTO 18005KT 10SM CLR 14/13 A3014 RMK AO2 SLP208 T01390128
Loading
Personal Weather Stations






























Interactive Weather Map New forecast layout! Learn more

10-Day Weather Forecast

Advertisements
Track Severe Weather on mobile